sensor_id;sensor_type;location;lat;lon;timestamp;pressure;altitude;pressure_sealevel;temperature;humidity
71105;BME280;58760;48.716;8.962;2024-03-17T00:01:19;97169.13;;;6.12;100.00
71105;BME280;58760;48.716;8.962;2024-03-17T00:04:03;97168.88;;;6.15;100.00
71105;BME280;58760;48.716;8.962;2024-03-17T00:06:41;97163.53;;;6.06;100.00
71105;BME280;58760;48.716;8.962;2024-03-17T00:09:08;97154.38;;;6.00;100.00
71105;BME280;58760;48.716;8.962;2024-03-17T00:11:36;97153.47;;;5.90;100.00
71105;BME280;58760;48.716;8.962;2024-03-17T00:14:03;97146.06;;;5.84;100.00
71105;BME280;58760;48.716;8.962;2024-03-17T00:16:28;97147.09;;;5.93;100.00
71105;BME280;58760;48.716;8.962;2024-03-17T00:18:59;97135.34;;;5.97;100.00
71105;BME280;58760;48.716;8.962;2024-03-17T00:21:25;97127.81;;;5.92;100.00
71105;BME280;58760;48.716;8.962;2024-03-17T00:23:52;97128.09;;;5.89;100.00
71105;BME280;58760;48.716;8.962;2024-03-17T00:26:17;97116.00;;;5.87;100.00
71105;BME280;58760;48.716;8.962;2024-03-17T00:28:46;97122.72;;;5.79;100.00
71105;BME280;58760;48.716;8.962;2024-03-17T00:31:15;97119.72;;;5.84;100.00
71105;BME280;58760;48.716;8.962;2024-03-17T00:33:45;97111.59;;;5.87;100.00
71105;BME280;58760;48.716;8.962;2024-03-17T00:36:12;97104.63;;;5.86;100.00
71105;BME280;58760;48.716;8.962;2024-03-17T00:38:38;97098.75;;;5.82;100.00
71105;BME280;58760;48.716;8.962;2024-03-17T00:41:08;97084.63;;;5.84;100.00
71105;BME280;58760;48.716;8.962;2024-03-17T00:43:34;97079.97;;;5.87;100.00
71105;BME280;58760;48.716;8.962;2024-03-17T00:46:03;97073.63;;;5.90;100.00
71105;BME280;58760;48.716;8.962;2024-03-17T00:48:29;97066.81;;;5.87;100.00
71105;BME280;58760;48.716;8.962;2024-03-17T00:50:57;97060.09;;;5.83;100.00
71105;BME280;58760;48.716;8.962;2024-03-17T00:53:25;97052.59;;;5.78;100.00
71105;BME280;58760;48.716;8.962;2024-03-17T00:55:52;97041.75;;;5.72;100.00
71105;BME280;58760;48.716;8.962;2024-03-17T00:58:22;97046.63;;;5.76;100.00
71105;BME280;58760;48.716;8.962;2024-03-17T01:00:47;97034.50;;;5.85;100.00
71105;BME280;58760;48.716;8.962;2024-03-17T01:03:14;97023.06;;;6.05;100.00
71105;BME280;58760;48.716;8.962;2024-03-17T01:05:42;97020.19;;;6.08;100.00
71105;BME280;58760;48.716;8.962;2024-03-17T01:08:10;97009.75;;;5.97;100.00
71105;BME280;58760;48.716;8.962;2024-03-17T01:10:40;97002.16;;;5.83;100.00
71105;BME280;58760;48.716;8.962;2024-03-17T01:13:07;97001.44;;;5.71;100.00
71105;BME280;58760;48.716;8.962;2024-03-17T01:15:34;96994.06;;;5.65;100.00
71105;BME280;58760;48.716;8.962;2024-03-17T01:18:01;96995.41;;;5.60;100.00
71105;BME280;58760;48.716;8.962;2024-03-17T01:20:34;96988.34;;;5.60;100.00
71105;BME280;58760;48.716;8.962;2024-03-17T01:23:01;96984.75;;;5.61;100.00
71105;BME280;58760;48.716;8.962;2024-03-17T01:25:27;96986.56;;;5.61;100.00
71105;BME280;58760;48.716;8.962;2024-03-17T01:27:53;96975.91;;;5.62;100.00
71105;BME280;58760;48.716;8.962;2024-03-17T01:30:19;96959.28;;;5.62;100.00
71105;BME280;58760;48.716;8.962;2024-03-17T01:32:46;96956.50;;;5.63;100.00
71105;BME280;58760;48.716;8.962;2024-03-17T01:35:12;96949.59;;;5.62;100.00
71105;BME280;58760;48.716;8.962;2024-03-17T01:37:38;96945.00;;;5.64;100.00
71105;BME280;58760;48.716;8.962;2024-03-17T01:40:07;96941.25;;;5.67;100.00
71105;BME280;58760;48.716;8.962;2024-03-17T01:42:35;96940.72;;;5.73;100.00
71105;BME280;58760;48.716;8.962;2024-03-17T01:45:01;96934.94;;;5.79;100.00
71105;BME280;58760;48.716;8.962;2024-03-17T01:47:27;96931.06;;;5.83;100.00
71105;BME280;58760;48.716;8.962;2024-03-17T01:49:54;96922.22;;;5.84;100.00
71105;BME280;58760;48.716;8.962;2024-03-17T01:52:21;96911.69;;;5.84;100.00
71105;BME280;58760;48.716;8.962;2024-03-17T01:54:49;96908.53;;;5.90;100.00
71105;BME280;58760;48.716;8.962;2024-03-17T01:57:14;96902.59;;;5.88;100.00
71105;BME280;58760;48.716;8.962;2024-03-17T01:59:41;96896.22;;;5.91;100.00
71105;BME280;58760;48.716;8.962;2024-03-17T02:02:06;96890.00;;;6.01;100.00
71105;BME280;58760;48.716;8.962;2024-03-17T02:04:32;96882.81;;;6.42;100.00
71105;BME280;58760;48.716;8.962;2024-03-17T02:06:59;96880.31;;;6.30;100.00
71105;BME280;58760;48.716;8.962;2024-03-17T02:09:24;96886.25;;;6.13;100.00
71105;BME280;58760;48.716;8.962;2024-03-17T02:11:51;96896.63;;;6.05;100.00
71105;BME280;58760;48.716;8.962;2024-03-17T02:14:17;96891.53;;;6.04;100.00
71105;BME280;58760;48.716;8.962;2024-03-17T02:16:43;96889.00;;;6.02;100.00
71105;BME280;58760;48.716;8.962;2024-03-17T02:19:10;96889.16;;;6.01;100.00
71105;BME280;58760;48.716;8.962;2024-03-17T02:21:37;96888.72;;;6.05;100.00
71105;BME280;58760;48.716;8.962;2024-03-17T02:24:04;96879.03;;;6.15;100.00
71105;BME280;58760;48.716;8.962;2024-03-17T02:26:33;96882.53;;;6.25;100.00
71105;BME280;58760;48.716;8.962;2024-03-17T02:29:03;96880.16;;;6.32;100.00
71105;BME280;58760;48.716;8.962;2024-03-17T02:31:29;96883.50;;;6.24;100.00
71105;BME280;58760;48.716;8.962;2024-03-17T02:33:59;96874.34;;;6.19;100.00
71105;BME280;58760;48.716;8.962;2024-03-17T02:36:24;96874.59;;;6.06;100.00
71105;BME280;58760;48.716;8.962;2024-03-17T02:38:51;96879.03;;;5.96;100.00
71105;BME280;58760;48.716;8.962;2024-03-17T02:41:42;96888.03;;;5.94;100.00
71105;BME280;58760;48.716;8.962;2024-03-17T02:44:08;96885.66;;;5.91;100.00
71105;BME280;58760;48.716;8.962;2024-03-17T02:46:36;96880.09;;;5.84;100.00
71105;BME280;58760;48.716;8.962;2024-03-17T02:49:03;96888.09;;;5.82;100.00
71105;BME280;58760;48.716;8.962;2024-03-17T02:51:31;96884.56;;;5.93;100.00
71105;BME280;58760;48.716;8.962;2024-03-17T02:53:59;96879.03;;;5.96;100.00
71105;BME280;58760;48.716;8.962;2024-03-17T02:56:33;96876.72;;;5.82;100.00
71105;BME280;58760;48.716;8.962;2024-03-17T02:59:03;96887.13;;;5.74;100.00
71105;BME280;58760;48.716;8.962;2024-03-17T03:01:30;96881.56;;;5.67;100.00
71105;BME280;58760;48.716;8.962;2024-03-17T03:04:05;96890.00;;;5.61;100.00
71105;BME280;58760;48.716;8.962;2024-03-17T03:06:33;96887.50;;;5.69;100.00
71105;BME280;58760;48.716;8.962;2024-03-17T03:09:02;96890.03;;;5.80;100.00
71105;BME280;58760;48.716;8.962;2024-03-17T03:11:31;96880.19;;;5.73;100.00
71105;BME280;58760;48.716;8.962;2024-03-17T03:14:00;96886.44;;;5.72;100.00
71105;BME280;58760;48.716;8.962;2024-03-17T03:16:30;96887.75;;;5.87;100.00
71105;BME280;58760;48.716;8.962;2024-03-17T03:19:00;96879.78;;;5.77;100.00
71105;BME280;58760;48.716;8.962;2024-03-17T03:21:27;96882.53;;;5.76;100.00
71105;BME280;58760;48.716;8.962;2024-03-17T03:23:56;96867.84;;;5.73;100.00
71105;BME280;58760;48.716;8.962;2024-03-17T03:26:21;96871.88;;;5.68;100.00
71105;BME280;58760;48.716;8.962;2024-03-17T03:28:50;96874.03;;;5.63;100.00
71105;BME280;58760;48.716;8.962;2024-03-17T03:31:16;96873.34;;;5.61;100.00
71105;BME280;58760;48.716;8.962;2024-03-17T03:33:43;96876.94;;;5.60;100.00
71105;BME280;58760;48.716;8.962;2024-03-17T03:36:11;96877.66;;;5.62;100.00
71105;BME280;58760;48.716;8.962;2024-03-17T03:38:37;96863.25;;;5.66;100.00
71105;BME280;58760;48.716;8.962;2024-03-17T03:41:10;96867.81;;;5.64;100.00
71105;BME280;58760;48.716;8.962;2024-03-17T03:43:36;96866.41;;;5.60;100.00
71105;BME280;58760;48.716;8.962;2024-03-17T03:46:03;96865.16;;;5.94;100.00
71105;BME280;58760;48.716;8.962;2024-03-17T03:48:31;96867.72;;;5.75;100.00
71105;BME280;58760;48.716;8.962;2024-03-17T03:50:57;96876.84;;;5.61;100.00
71105;BME280;58760;48.716;8.962;2024-03-17T03:53:24;96873.75;;;5.56;100.00
71105;BME280;58760;48.716;8.962;2024-03-17T03:55:51;96875.56;;;5.56;100.00
71105;BME280;58760;48.716;8.962;2024-03-17T03:58:16;96879.53;;;5.50;100.00
71105;BME280;58760;48.716;8.962;2024-03-17T04:00:42;96882.19;;;5.50;100.00
71105;BME280;58760;48.716;8.962;2024-03-17T04:03:08;96873.72;;;5.47;100.00
71105;BME280;58760;48.716;8.962;2024-03-17T04:05:37;96859.88;;;5.45;100.00
71105;BME280;58760;48.716;8.962;2024-03-17T04:08:04;96869.72;;;5.43;100.00
71105;BME280;58760;48.716;8.962;2024-03-17T04:10:30;96867.06;;;5.43;100.00
71105;BME280;58760;48.716;8.962;2024-03-17T04:12:58;96868.03;;;5.42;100.00
71105;BME280;58760;48.716;8.962;2024-03-17T04:15:24;96863.31;;;5.36;100.00
71105;BME280;58760;48.716;8.962;2024-03-17T04:17:50;96874.78;;;5.35;100.00
71105;BME280;58760;48.716;8.962;2024-03-17T04:20:19;96873.81;;;5.36;100.00
71105;BME280;58760;48.716;8.962;2024-03-17T04:22:46;96871.06;;;5.37;100.00
71105;BME280;58760;48.716;8.962;2024-03-17T04:25:14;96875.25;;;5.40;100.00
71105;BME280;58760;48.716;8.962;2024-03-17T04:27:40;96874.41;;;5.39;100.00
71105;BME280;58760;48.716;8.962;2024-03-17T04:30:06;96869.41;;;5.36;100.00
71105;BME280;58760;48.716;8.962;2024-03-17T04:32:33;96865.09;;;5.35;100.00
71105;BME280;58760;48.716;8.962;2024-03-17T04:34:59;96861.38;;;5.38;100.00
71105;BME280;58760;48.716;8.962;2024-03-17T04:37:25;96870.47;;;5.34;100.00
71105;BME280;58760;48.716;8.962;2024-03-17T04:40:00;96864.78;;;5.28;100.00
71105;BME280;58760;48.716;8.962;2024-03-17T04:42:27;96864.34;;;5.23;100.00
71105;BME280;58760;48.716;8.962;2024-03-17T04:44:54;96867.22;;;5.20;100.00
71105;BME280;58760;48.716;8.962;2024-03-17T04:47:19;96863.91;;;5.18;100.00
71105;BME280;58760;48.716;8.962;2024-03-17T04:49:46;96857.13;;;5.16;100.00
71105;BME280;58760;48.716;8.962;2024-03-17T04:52:12;96865.13;;;5.14;100.00
71105;BME280;58760;48.716;8.962;2024-03-17T04:54:40;96874.84;;;5.23;100.00
71105;BME280;58760;48.716;8.962;2024-03-17T04:57:08;96876.28;;;5.27;100.00
71105;BME280;58760;48.716;8.962;2024-03-17T04:59:35;96867.44;;;5.28;100.00
71105;BME280;58760;48.716;8.962;2024-03-17T05:02:01;96867.28;;;5.30;100.00
71105;BME280;58760;48.716;8.962;2024-03-17T05:04:28;96860.38;;;5.29;100.00
71105;BME280;58760;48.716;8.962;2024-03-17T05:06:54;96861.22;;;5.30;100.00
71105;BME280;58760;48.716;8.962;2024-03-17T05:09:20;96868.94;;;5.31;100.00
71105;BME280;58760;48.716;8.962;2024-03-17T05:11:47;96870.75;;;5.31;100.00
71105;BME280;58760;48.716;8.962;2024-03-17T05:14:13;96869.66;;;5.33;100.00
71105;BME280;58760;48.716;8.962;2024-03-17T05:16:40;96870.94;;;5.39;100.00
71105;BME280;58760;48.716;8.962;2024-03-17T05:19:07;96879.66;;;5.39;100.00
71105;BME280;58760;48.716;8.962;2024-03-17T05:21:35;96871.69;;;5.60;100.00
71105;BME280;58760;48.716;8.962;2024-03-17T05:24:02;96870.53;;;5.53;100.00
71105;BME280;58760;48.716;8.962;2024-03-17T05:26:29;96878.28;;;5.45;100.00
71105;BME280;58760;48.716;8.962;2024-03-17T05:28:57;96880.50;;;5.40;100.00
71105;BME280;58760;48.716;8.962;2024-03-17T05:31:24;96879.66;;;5.39;100.00
71105;BME280;58760;48.716;8.962;2024-03-17T05:33:49;96876.53;;;5.24;100.00
71105;BME280;58760;48.716;8.962;2024-03-17T05:36:15;96885.22;;;5.15;100.00
71105;BME280;58760;48.716;8.962;2024-03-17T05:38:41;96888.13;;;5.12;100.00
71105;BME280;58760;48.716;8.962;2024-03-17T05:41:08;96892.41;;;5.13;100.00
71105;BME280;58760;48.716;8.962;2024-03-17T05:43:38;96899.72;;;5.10;100.00
71105;BME280;58760;48.716;8.962;2024-03-17T05:46:06;96892.81;;;5.09;100.00
71105;BME280;58760;48.716;8.962;2024-03-17T05:48:33;96897.53;;;5.15;100.00
71105;BME280;58760;48.716;8.962;2024-03-17T05:51:02;96896.69;;;5.14;100.00
71105;BME280;58760;48.716;8.962;2024-03-17T05:53:30;96887.78;;;5.26;100.00
71105;BME280;58760;48.716;8.962;2024-03-17T05:56:03;96893.94;;;5.16;100.00
71105;BME280;58760;48.716;8.962;2024-03-17T05:58:30;96904.22;;;4.98;100.00
71105;BME280;58760;48.716;8.962;2024-03-17T06:00:56;96901.06;;;5.04;100.00
71105;BME280;58760;48.716;8.962;2024-03-17T06:03:23;96893.50;;;5.11;100.00
71105;BME280;58760;48.716;8.962;2024-03-17T06:05:51;96908.31;;;5.12;100.00
71105;BME280;58760;48.716;8.962;2024-03-17T06:08:16;96905.31;;;5.16;100.00
71105;BME280;58760;48.716;8.962;2024-03-17T06:10:44;96907.78;;;5.18;100.00
71105;BME280;58760;48.716;8.962;2024-03-17T06:13:11;96912.22;;;5.17;100.00
71105;BME280;58760;48.716;8.962;2024-03-17T06:15:39;96909.78;;;5.25;100.00
71105;BME280;58760;48.716;8.962;2024-03-17T06:18:07;96903.56;;;5.26;100.00
71105;BME280;58760;48.716;8.962;2024-03-17T06:20:41;96899.16;;;5.37;100.00
71105;BME280;58760;48.716;8.962;2024-03-17T06:23:19;96901.72;;;5.48;100.00
71105;BME280;58760;48.716;8.962;2024-03-17T06:25:46;96904.06;;;5.51;100.00
71105;BME280;58760;48.716;8.962;2024-03-17T06:28:16;96896.31;;;5.49;100.00
71105;BME280;58760;48.716;8.962;2024-03-17T06:30:46;96894.94;;;5.55;100.00
71105;BME280;58760;48.716;8.962;2024-03-17T06:33:20;96906.91;;;5.68;100.00
71105;BME280;58760;48.716;8.962;2024-03-17T06:35:47;96912.22;;;5.78;100.00
71105;BME280;58760;48.716;8.962;2024-03-17T06:38:13;96917.69;;;5.96;100.00
71105;BME280;58760;48.716;8.962;2024-03-17T06:40:41;96917.31;;;6.10;100.00
71105;BME280;58760;48.716;8.962;2024-03-17T06:43:08;96917.72;;;6.15;100.00
71105;BME280;58760;48.716;8.962;2024-03-17T06:45:34;96918.88;;;6.31;100.00
71105;BME280;58760;48.716;8.962;2024-03-17T06:48:00;96922.06;;;6.35;100.00
71105;BME280;58760;48.716;8.962;2024-03-17T06:50:25;96927.91;;;6.39;100.00
71105;BME280;58760;48.716;8.962;2024-03-17T06:52:51;96934.28;;;6.65;100.00
71105;BME280;58760;48.716;8.962;2024-03-17T06:55:18;96935.13;;;6.56;100.00
71105;BME280;58760;48.716;8.962;2024-03-17T06:57:44;96939.56;;;6.46;100.00
71105;BME280;58760;48.716;8.962;2024-03-17T07:00:11;96944.84;;;6.65;100.00
71105;BME280;58760;48.716;8.962;2024-03-17T07:02:40;96954.81;;;6.71;100.00
71105;BME280;58760;48.716;8.962;2024-03-17T07:05:14;96955.38;;;6.74;100.00
71105;BME280;58760;48.716;8.962;2024-03-17T07:07:44;96968.16;;;6.89;100.00
71105;BME280;58760;48.716;8.962;2024-03-17T07:10:12;96967.31;;;7.07;100.00
71105;BME280;58760;48.716;8.962;2024-03-17T07:12:38;96974.25;;;7.18;100.00
71105;BME280;58760;48.716;8.962;2024-03-17T07:15:05;96978.84;;;7.06;100.00
71105;BME280;58760;48.716;8.962;2024-03-17T07:17:33;96982.94;;;7.57;100.00
71105;BME280;58760;48.716;8.962;2024-03-17T07:19:59;96998.47;;;7.69;100.00
71105;BME280;58760;48.716;8.962;2024-03-17T07:22:25;97014.97;;;7.81;100.00
71105;BME280;58760;48.716;8.962;2024-03-17T07:24:55;97028.53;;;8.05;100.00
71105;BME280;58760;48.716;8.962;2024-03-17T07:27:23;97044.88;;;8.18;100.00
71105;BME280;58760;48.716;8.962;2024-03-17T07:29:49;97051.56;;;8.22;100.00
71105;BME280;58760;48.716;8.962;2024-03-17T07:32:15;97059.75;;;8.19;100.00
71105;BME280;58760;48.716;8.962;2024-03-17T07:34:43;97064.22;;;8.28;100.00
71105;BME280;58760;48.716;8.962;2024-03-17T07:37:10;97054.63;;;8.18;100.00
71105;BME280;58760;48.716;8.962;2024-03-17T07:39:39;97062.66;;;8.35;100.00
71105;BME280;58760;48.716;8.962;2024-03-17T07:42:06;97059.88;;;8.64;100.00
71105;BME280;58760;48.716;8.962;2024-03-17T07:44:32;97073.22;;;8.63;100.00
71105;BME280;58760;48.716;8.962;2024-03-17T07:47:03;97080.56;;;8.69;100.00
71105;BME280;58760;48.716;8.962;2024-03-17T07:49:32;97081.56;;;8.68;100.00
71105;BME280;58760;48.716;8.962;2024-03-17T07:51:59;97089.34;;;9.14;100.00
71105;BME280;58760;48.716;8.962;2024-03-17T07:54:25;97087.47;;;9.07;100.00
71105;BME280;58760;48.716;8.962;2024-03-17T07:56:53;97094.88;;;9.03;100.00
71105;BME280;58760;48.716;8.962;2024-03-17T07:59:20;97102.50;;;9.06;100.00
71105;BME280;58760;48.716;8.962;2024-03-17T08:01:46;97100.09;;;9.13;100.00
71105;BME280;58760;48.716;8.962;2024-03-17T08:04:15;97109.34;;;9.44;100.00
71105;BME280;58760;48.716;8.962;2024-03-17T08:06:42;97107.66;;;9.43;100.00
71105;BME280;58760;48.716;8.962;2024-03-17T08:09:08;97109.25;;;9.54;100.00
71105;BME280;58760;48.716;8.962;2024-03-17T08:11:37;97114.47;;;9.63;100.00
71105;BME280;58760;48.716;8.962;2024-03-17T08:14:05;97111.69;;;9.65;100.00
71105;BME280;58760;48.716;8.962;2024-03-17T08:16:31;97106.91;;;9.68;100.00
71105;BME280;58760;48.716;8.962;2024-03-17T08:18:58;97112.75;;;9.72;100.00
71105;BME280;58760;48.716;8.962;2024-03-17T08:21:25;97108.38;;;9.88;100.00
71105;BME280;58760;48.716;8.962;2024-03-17T08:23:55;97107.91;;;9.93;100.00
71105;BME280;58760;48.716;8.962;2024-03-17T08:26:26;97101.94;;;9.91;100.00
71105;BME280;58760;48.716;8.962;2024-03-17T08:28:51;97100.25;;;10.08;100.00
71105;BME280;58760;48.716;8.962;2024-03-17T08:31:18;97107.13;;;10.18;100.00
71105;BME280;58760;48.716;8.962;2024-03-17T08:33:44;97103.50;;;10.19;100.00
71105;BME280;58760;48.716;8.962;2024-03-17T08:36:09;97110.56;;;10.36;100.00
71105;BME280;58760;48.716;8.962;2024-03-17T08:38:46;97099.97;;;10.44;100.00
71105;BME280;58760;48.716;8.962;2024-03-17T08:41:22;97096.50;;;10.44;100.00
71105;BME280;58760;48.716;8.962;2024-03-17T08:43:50;97092.47;;;10.66;100.00
71105;BME280;58760;48.716;8.962;2024-03-17T08:46:15;97084.25;;;10.85;100.00
71105;BME280;58760;48.716;8.962;2024-03-17T08:48:47;97084.06;;;10.86;100.00
71105;BME280;58760;48.716;8.962;2024-03-17T08:51:13;97075.53;;;11.17;100.00
71105;BME280;58760;48.716;8.962;2024-03-17T08:53:40;97072.72;;;11.26;100.00
71105;BME280;58760;48.716;8.962;2024-03-17T08:56:10;97073.38;;;11.28;100.00
71105;BME280;58760;48.716;8.962;2024-03-17T08:58:36;97065.41;;;11.20;100.00
71105;BME280;58760;48.716;8.962;2024-03-17T09:01:07;97069.91;;;11.36;100.00
71105;BME280;58760;48.716;8.962;2024-03-17T09:03:37;97071.75;;;11.35;100.00
71105;BME280;58760;48.716;8.962;2024-03-17T09:06:03;97074.25;;;11.37;100.00
71105;BME280;58760;48.716;8.962;2024-03-17T09:08:29;97068.97;;;11.77;100.00
71105;BME280;58760;48.716;8.962;2024-03-17T09:10:55;97048.84;;;11.59;100.00
71105;BME280;58760;48.716;8.962;2024-03-17T09:13:24;97055.03;;;11.83;100.00
71105;BME280;58760;48.716;8.962;2024-03-17T09:16:00;97050.19;;;11.95;100.00
71105;BME280;58760;48.716;8.962;2024-03-17T09:18:29;97032.84;;;12.07;100.00
71105;BME280;58760;48.716;8.962;2024-03-17T09:23:22;97025.56;;;12.09;100.00
71105;BME280;58760;48.716;8.962;2024-03-17T09:25:58;97024.97;;;12.30;100.00
71105;BME280;58760;48.716;8.962;2024-03-17T09:28:25;97015.34;;;12.29;100.00
71105;BME280;58760;48.716;8.962;2024-03-17T09:30:50;97010.25;;;12.11;100.00
71105;BME280;58760;48.716;8.962;2024-03-17T09:33:25;97021.03;;;12.10;100.00
71105;BME280;58760;48.716;8.962;2024-03-17T09:35:57;97005.31;;;12.39;100.00
71105;BME280;58760;48.716;8.962;2024-03-17T09:38:24;97003.97;;;11.96;100.00
71105;BME280;58760;48.716;8.962;2024-03-17T09:41:09;96996.03;;;11.80;100.00
71105;BME280;58760;48.716;8.962;2024-03-17T09:43:39;97013.66;;;11.73;100.00
71105;BME280;58760;48.716;8.962;2024-03-17T09:46:05;97000.59;;;12.10;100.00
71105;BME280;58760;48.716;8.962;2024-03-17T09:48:35;97007.22;;;12.22;100.00
71105;BME280;58760;48.716;8.962;2024-03-17T09:51:03;97009.25;;;12.04;100.00
71105;BME280;58760;48.716;8.962;2024-03-17T09:53:31;97008.72;;;12.17;100.00
71105;BME280;58760;48.716;8.962;2024-03-17T09:56:00;97002.78;;;12.45;100.00
71105;BME280;58760;48.716;8.962;2024-03-17T09:58:27;96980.56;;;12.30;100.00
71105;BME280;58760;48.716;8.962;2024-03-17T10:00:52;96982.25;;;12.31;100.00
71105;BME280;58760;48.716;8.962;2024-03-17T10:03:42;96978.25;;;12.27;100.00
71105;BME280;58760;48.716;8.962;2024-03-17T10:06:10;96974.25;;;12.93;100.00
71105;BME280;58760;48.716;8.962;2024-03-17T10:08:41;96966.94;;;12.64;100.00
71105;BME280;58760;48.716;8.962;2024-03-17T10:11:19;96966.50;;;12.52;100.00
71105;BME280;58760;48.716;8.962;2024-03-17T10:13:58;96969.16;;;12.52;100.00
71105;BME280;58760;48.716;8.962;2024-03-17T10:16:25;96974.66;;;12.51;100.00
71105;BME280;58760;48.716;8.962;2024-03-17T10:19:14;96962.34;;;12.81;100.00
71105;BME280;58760;48.716;8.962;2024-03-17T10:21:42;96951.72;;;13.03;100.00
71105;BME280;58760;48.716;8.962;2024-03-17T10:26:55;96948.03;;;13.04;100.00
71105;BME280;58760;48.716;8.962;2024-03-17T10:29:25;96959.31;;;13.15;100.00
71105;BME280;58760;48.716;8.962;2024-03-17T10:32:03;96957.84;;;13.04;100.00
71105;BME280;58760;48.716;8.962;2024-03-17T10:34:32;96966.69;;;13.50;100.00
71105;BME280;58760;48.716;8.962;2024-03-17T10:37:13;96965.53;;;13.67;100.00
71105;BME280;58760;48.716;8.962;2024-03-17T10:39:42;96964.28;;;13.18;100.00
71105;BME280;58760;48.716;8.962;2024-03-17T10:42:11;96963.84;;;13.06;100.00
71105;BME280;58760;48.716;8.962;2024-03-17T10:44:40;96961.50;;;13.11;100.00
71105;BME280;58760;48.716;8.962;2024-03-17T10:47:22;96960.38;;;13.28;100.00
71105;BME280;58760;48.716;8.962;2024-03-17T10:49:56;96956.16;;;13.11;100.00
71105;BME280;58760;48.716;8.962;2024-03-17T10:52:28;96971.84;;;13.51;100.00
71105;BME280;58760;48.716;8.962;2024-03-17T10:54:55;96975.03;;;13.47;100.00
71105;BME280;58760;48.716;8.962;2024-03-17T10:57:32;96981.41;;;13.60;100.00
71105;BME280;58760;48.716;8.962;2024-03-17T11:00:05;96975.72;;;13.63;100.00
71105;BME280;58760;48.716;8.962;2024-03-17T11:02:41;96961.88;;;13.83;100.00
71105;BME280;58760;48.716;8.962;2024-03-17T11:05:34;96959.28;;;13.89;100.00
71105;BME280;58760;48.716;8.962;2024-03-17T11:08:01;96958.81;;;13.86;100.00
71105;BME280;58760;48.716;8.962;2024-03-17T11:10:33;96956.84;;;14.17;100.00
71105;BME280;58760;48.716;8.962;2024-03-17T11:13:02;96957.91;;;14.08;100.00
71105;BME280;58760;48.716;8.962;2024-03-17T11:20:56;96938.41;;;14.22;100.00
71105;BME280;58760;48.716;8.962;2024-03-17T11:23:27;96938.69;;;14.42;100.00
71105;BME280;58760;48.716;8.962;2024-03-17T11:26:00;96939.31;;;14.29;100.00
71105;BME280;58760;48.716;8.962;2024-03-17T11:37:03;96926.06;;;14.50;100.00
71105;BME280;58760;48.716;8.962;2024-03-17T11:39:47;96929.03;;;14.77;100.00
71105;BME280;58760;48.716;8.962;2024-03-17T11:42:19;96932.59;;;14.62;100.00
71105;BME280;58760;48.716;8.962;2024-03-17T11:44:58;96929.75;;;14.49;100.00
71105;BME280;58760;48.716;8.962;2024-03-17T11:47:36;96927.63;;;14.45;100.00
71105;BME280;58760;48.716;8.962;2024-03-17T11:50:03;96924.66;;;14.54;100.00
71105;BME280;58760;48.716;8.962;2024-03-17T11:52:31;96929.84;;;14.41;100.00
71105;BME280;58760;48.716;8.962;2024-03-17T11:55:00;96920.22;;;14.11;100.00
71105;BME280;58760;48.716;8.962;2024-03-17T11:57:27;96925.97;;;14.29;100.00
71105;BME280;58760;48.716;8.962;2024-03-17T11:59:54;96920.34;;;14.53;100.00
71105;BME280;58760;48.716;8.962;2024-03-17T12:04:48;96919.75;;;14.73;100.00
71105;BME280;58760;48.716;8.962;2024-03-17T12:07:20;96907.56;;;14.49;100.00
71105;BME280;58760;48.716;8.962;2024-03-17T12:09:51;96912.25;;;14.18;100.00
71105;BME280;58760;48.716;8.962;2024-03-17T12:12:23;96899.41;;;14.72;100.00
71105;BME280;58760;48.716;8.962;2024-03-17T12:14:52;96920.88;;;14.63;100.00
71105;BME280;58760;48.716;8.962;2024-03-17T12:17:24;96912.19;;;14.40;100.00
71105;BME280;58760;48.716;8.962;2024-03-17T12:19:51;96910.72;;;14.23;100.00
71105;BME280;58760;48.716;8.962;2024-03-17T12:22:22;96901.25;;;14.06;100.00
71105;BME280;58760;48.716;8.962;2024-03-17T12:24:54;96899.81;;;14.54;100.00
71105;BME280;58760;48.716;8.962;2024-03-17T12:27:25;96895.66;;;14.51;100.00
71105;BME280;58760;48.716;8.962;2024-03-17T12:29:52;96902.69;;;14.52;100.00
71105;BME280;58760;48.716;8.962;2024-03-17T12:32:20;96885.06;;;14.58;100.00
71105;BME280;58760;48.716;8.962;2024-03-17T12:34:52;96885.75;;;14.45;100.00
71105;BME280;58760;48.716;8.962;2024-03-17T12:37:18;96891.47;;;14.42;100.00
71105;BME280;58760;48.716;8.962;2024-03-17T12:39:45;96889.34;;;14.74;100.00
71105;BME280;58760;48.716;8.962;2024-03-17T12:42:26;96883.38;;;14.72;100.00
71105;BME280;58760;48.716;8.962;2024-03-17T12:44:55;96874.66;;;14.63;100.00
71105;BME280;58760;48.716;8.962;2024-03-17T12:47:27;96877.25;;;14.99;100.00
71105;BME280;58760;48.716;8.962;2024-03-17T12:49:55;96869.56;;;15.10;100.00
71105;BME280;58760;48.716;8.962;2024-03-17T12:52:26;96871.16;;;15.05;100.00
71105;BME280;58760;48.716;8.962;2024-03-17T12:54:58;96863.25;;;15.18;100.00
71105;BME280;58760;48.716;8.962;2024-03-17T12:57:47;96858.25;;;15.36;100.00
71105;BME280;58760;48.716;8.962;2024-03-17T13:00:33;96861.09;;;15.35;100.00
71105;BME280;58760;48.716;8.962;2024-03-17T13:03:05;96860.88;;;15.57;100.00
71105;BME280;58760;48.716;8.962;2024-03-17T13:05:38;96851.03;;;15.64;100.00
71105;BME280;58760;48.716;8.962;2024-03-17T13:08:04;96846.28;;;15.32;100.00
71105;BME280;58760;48.716;8.962;2024-03-17T13:10:31;96848.84;;;15.19;100.00
71105;BME280;58760;48.716;8.962;2024-03-17T13:13:04;96853.94;;;15.63;100.00
71105;BME280;58760;48.716;8.962;2024-03-17T13:15:31;96841.19;;;16.06;100.00
71105;BME280;58760;48.716;8.962;2024-03-17T13:18:02;96846.25;;;15.88;100.00
71105;BME280;58760;48.716;8.962;2024-03-17T13:20:33;96844.16;;;15.77;100.00
71105;BME280;58760;48.716;8.962;2024-03-17T13:23:01;96828.91;;;15.84;100.00
71105;BME280;58760;48.716;8.962;2024-03-17T13:25:28;96835.25;;;15.69;100.00
71105;BME280;58760;48.716;8.962;2024-03-17T13:28:04;96836.28;;;15.75;100.00